createdAt,value
2022-08-21T00:00:32.820Z,12.97
2022-08-21T00:03:07.881Z,12.91
2022-08-21T00:05:45.762Z,12.86
2022-08-21T00:08:16.933Z,12.85
2022-08-21T00:10:48.179Z,12.84
2022-08-21T00:13:20.719Z,12.87
2022-08-21T00:15:52.788Z,12.83
2022-08-21T00:18:23.706Z,12.90
2022-08-21T00:20:56.649Z,12.92
2022-08-21T00:23:27.114Z,12.90
2022-08-21T00:25:57.313Z,12.82
2022-08-21T00:28:27.308Z,12.79
2022-08-21T00:30:57.728Z,12.75
2022-08-21T00:33:28.113Z,12.69
2022-08-21T00:36:01.407Z,12.70
2022-08-21T00:38:31.398Z,12.66
2022-08-21T00:41:27.587Z,12.61
2022-08-21T00:43:58.669Z,12.58
2022-08-21T00:46:28.964Z,12.59
2022-08-21T00:48:59.853Z,12.58
2022-08-21T00:51:40.304Z,12.59
2022-08-21T00:54:18.311Z,12.56
2022-08-21T00:56:53.805Z,12.47
2022-08-21T00:59:27.192Z,12.44
2022-08-21T01:01:57.695Z,12.46
2022-08-21T01:04:28.126Z,12.45
2022-08-21T01:07:01.020Z,12.45
2022-08-21T01:09:31.208Z,12.45
2022-08-21T01:12:01.346Z,12.45
2022-08-21T01:14:32.484Z,12.35
2022-08-21T01:17:05.593Z,12.25
2022-08-21T01:19:36.156Z,12.32
2022-08-21T01:22:10.863Z,12.28
2022-08-21T01:24:40.929Z,12.29
2022-08-21T01:27:11.709Z,12.24
2022-08-21T01:29:48.753Z,12.26
2022-08-21T01:32:22.225Z,12.26
2022-08-21T01:34:55.960Z,12.23
2022-08-21T01:37:29.111Z,12.20
2022-08-21T01:39:59.229Z,12.12
2022-08-21T01:42:29.769Z,12.14
2022-08-21T01:45:00.193Z,12.14
2022-08-21T01:47:30.318Z,12.14
2022-08-21T01:50:00.502Z,12.14
2022-08-21T01:52:33.210Z,12.10
2022-08-21T01:55:03.366Z,12.06
2022-08-21T01:57:33.968Z,12.07
2022-08-21T02:00:04.679Z,12.07
2022-08-21T02:02:42.551Z,12.05
2022-08-21T02:05:16.269Z,12.00
2022-08-21T02:07:52.976Z,11.94
2022-08-21T02:10:27.588Z,11.96
2022-08-21T02:12:57.816Z,11.94
2022-08-21T02:15:28.334Z,11.92
2022-08-21T02:18:01.621Z,11.92
2022-08-21T02:20:35.511Z,11.93
2022-08-21T02:23:11.145Z,11.90
2022-08-21T02:25:42.150Z,11.83
2022-08-21T02:28:16.989Z,11.87
2022-08-21T02:30:53.405Z,11.94
2022-08-21T02:33:23.502Z,11.88
2022-08-21T02:35:54.139Z,11.88
2022-08-21T02:38:31.265Z,11.90
2022-08-21T02:41:01.743Z,11.90
2022-08-21T02:43:32.238Z,11.88
2022-08-21T02:46:02.418Z,11.85
2022-08-21T02:48:37.819Z,11.82
2022-08-21T02:51:12.327Z,11.78
2022-08-21T02:53:46.710Z,11.80
2022-08-21T02:56:19.602Z,11.79
2022-08-21T02:58:52.774Z,11.77
2022-08-21T03:01:24.748Z,11.76
2022-08-21T03:03:55.225Z,11.78
2022-08-21T03:06:26.614Z,11.83
2022-08-21T03:08:59.289Z,11.79
2022-08-21T03:11:29.571Z,11.75
2022-08-21T03:13:59.658Z,11.68
2022-08-21T03:16:34.373Z,11.67
2022-08-21T03:19:05.991Z,11.64
2022-08-21T03:21:36.007Z,11.69
2022-08-21T03:24:10.482Z,11.63
2022-08-21T03:26:41.444Z,11.65
2022-08-21T03:29:11.653Z,11.65
2022-08-21T03:31:41.625Z,11.64
2022-08-21T03:34:11.760Z,11.70
2022-08-21T03:36:41.901Z,11.72
2022-08-21T03:39:14.649Z,11.82
2022-08-21T03:41:44.993Z,11.82
2022-08-21T03:44:15.033Z,11.73
2022-08-21T03:46:44.949Z,11.70
2022-08-21T03:49:14.938Z,11.65
2022-08-21T03:51:44.929Z,11.66
2022-08-21T03:54:17.579Z,11.67
2022-08-21T03:56:48.477Z,11.67
2022-08-21T03:59:18.742Z,11.64
2022-08-21T04:01:57.017Z,11.58
2022-08-21T04:04:27.675Z,11.62
2022-08-21T04:06:58.258Z,11.59
2022-08-21T04:09:31.357Z,11.53
2022-08-21T04:12:04.119Z,11.43
2022-08-21T04:14:34.093Z,11.45
2022-08-21T04:17:04.129Z,11.45
2022-08-21T04:19:34.246Z,11.49
2022-08-21T04:22:04.289Z,11.53
2022-08-21T04:24:36.882Z,11.60
2022-08-21T04:27:07.180Z,11.55
2022-08-21T04:29:40.007Z,11.51
2022-08-21T04:32:10.368Z,11.49
2022-08-21T04:34:40.469Z,11.52
2022-08-21T04:37:10.459Z,11.55
2022-08-21T04:39:43.155Z,11.57
2022-08-21T04:42:13.106Z,11.55
2022-08-21T04:44:43.122Z,11.62
2022-08-21T04:47:13.129Z,11.70
2022-08-21T04:49:43.089Z,11.78
2022-08-21T04:52:14.769Z,11.85
2022-08-21T04:54:54.796Z,11.87
2022-08-21T04:57:39.718Z,11.90
2022-08-21T05:00:20.330Z,12.00
2022-08-21T05:02:55.348Z,11.95
2022-08-21T05:05:25.722Z,12.14
2022-08-21T05:07:57.229Z,12.51
2022-08-21T05:10:32.386Z,12.79
2022-08-21T05:13:04.361Z,12.90
2022-08-21T05:15:34.411Z,13.31
2022-08-21T05:18:04.498Z,13.86
2022-08-21T05:20:35.422Z,14.37
2022-08-21T05:23:11.314Z,14.78
2022-08-21T05:25:45.051Z,15.09
2022-08-21T05:28:16.434Z,15.42
2022-08-21T05:30:46.718Z,15.82
2022-08-21T05:33:16.921Z,16.22
2022-08-21T05:35:46.889Z,16.54
2022-08-21T05:38:18.570Z,16.81
2022-08-21T05:40:51.375Z,17.28
2022-08-21T05:43:21.470Z,17.71
2022-08-21T05:45:51.544Z,18.16
2022-08-21T05:48:27.373Z,18.42
2022-08-21T05:50:57.561Z,18.85
2022-08-21T05:53:28.666Z,19.12
2022-08-21T05:56:01.382Z,19.57
2022-08-21T05:58:31.321Z,19.95
2022-08-21T06:01:01.327Z,20.09
2022-08-21T06:03:36.236Z,20.56
2022-08-21T06:06:07.362Z,20.87
2022-08-21T06:08:37.904Z,20.95
2022-08-21T06:11:12.593Z,20.80
2022-08-21T06:13:43.068Z,21.36
2022-08-21T06:16:17.531Z,21.69
2022-08-21T06:18:49.378Z,22.15
2022-08-21T06:21:19.951Z,22.43
2022-08-21T06:23:50.094Z,22.89
2022-08-21T06:26:23.223Z,22.78
2022-08-21T06:28:53.371Z,22.74
2022-08-21T06:31:28.061Z,23.02
2022-08-21T06:33:58.797Z,23.74
2022-08-21T06:36:28.898Z,24.20
2022-08-21T06:38:58.891Z,24.61
2022-08-21T06:41:39.052Z,24.99
2022-08-21T06:44:09.260Z,24.88
2022-08-21T06:46:40.585Z,25.35
2022-08-21T06:49:17.517Z,25.53
2022-08-21T06:51:51.546Z,25.38
2022-08-21T06:54:21.500Z,25.55
2022-08-21T06:56:54.119Z,25.50
2022-08-21T06:59:24.139Z,25.56
2022-08-21T07:01:54.175Z,26.13
2022-08-21T07:04:24.353Z,26.72
2022-08-21T07:06:54.434Z,27.17
2022-08-21T07:09:25.025Z,27.24
2022-08-21T07:12:00.057Z,26.68
2022-08-21T07:14:30.290Z,25.92
2022-08-21T07:17:00.354Z,26.28
2022-08-21T07:19:30.318Z,26.76
2022-08-21T07:22:05.141Z,26.93
2022-08-21T07:24:35.139Z,27.09
2022-08-21T07:27:10.029Z,27.39
2022-08-21T07:29:40.365Z,28.29
2022-08-21T07:32:10.404Z,28.48
2022-08-21T07:34:40.436Z,29.16
2022-08-21T07:37:10.486Z,30.20
2022-08-21T07:39:40.869Z,29.80
2022-08-21T07:42:13.638Z,29.55
2022-08-21T07:44:43.857Z,30.06
2022-08-21T07:47:13.939Z,30.42
2022-08-21T07:49:43.906Z,30.94
2022-08-21T07:52:13.915Z,31.74
2022-08-21T07:54:43.893Z,32.29
2022-08-21T07:57:16.909Z,31.73
2022-08-21T07:59:51.641Z,31.61
2022-08-21T08:02:28.166Z,32.09
2022-08-21T08:05:02.513Z,32.66
2022-08-21T08:07:32.898Z,32.91
2022-08-21T08:10:02.862Z,33.11
2022-08-21T08:12:35.439Z,33.28
2022-08-21T08:15:11.490Z,33.66
2022-08-21T08:17:41.891Z,33.95
2022-08-21T08:20:15.465Z,33.57
2022-08-21T08:22:49.992Z,33.53
2022-08-21T08:25:23.939Z,32.97
2022-08-21T08:27:56.926Z,32.95
2022-08-21T08:30:31.182Z,33.55
2022-08-21T08:33:03.240Z,33.86
2022-08-21T08:35:33.312Z,34.37
2022-08-21T08:38:03.410Z,34.74
2022-08-21T08:40:43.181Z,34.47
2022-08-21T08:43:16.927Z,34.85
2022-08-21T08:45:51.873Z,34.43
2022-08-21T08:48:43.101Z,34.41
2022-08-21T08:51:25.369Z,33.66
2022-08-21T08:54:02.356Z,33.70
2022-08-21T08:56:36.563Z,34.59
2022-08-21T08:59:18.822Z,35.04
2022-08-21T09:01:49.682Z,35.10
2022-08-21T09:04:29.666Z,34.54
2022-08-21T09:07:16.681Z,35.86
2022-08-21T09:10:07.268Z,36.63
2022-08-21T09:12:49.494Z,36.76
2022-08-21T09:15:34.388Z,35.77
2022-08-21T09:18:22.240Z,36.06
2022-08-21T09:21:03.672Z,36.26
2022-08-21T09:23:46.622Z,36.82
2022-08-21T09:26:20.101Z,37.47
2022-08-21T09:28:56.111Z,37.42
2022-08-21T09:31:33.106Z,37.54
2022-08-21T09:34:05.380Z,37.35
2022-08-21T09:36:46.868Z,37.46
2022-08-21T09:39:27.874Z,37.45
2022-08-21T09:42:03.736Z,37.07
2022-08-21T09:44:40.862Z,37.40
2022-08-21T09:47:16.167Z,37.62
2022-08-21T09:49:48.370Z,38.02
2022-08-21T09:52:24.598Z,37.78
2022-08-21T09:54:58.088Z,38.43
2022-08-21T09:57:50.403Z,36.23
2022-08-21T10:00:30.826Z,37.48
2022-08-21T10:03:19.690Z,38.84
2022-08-21T10:06:02.710Z,39.60
2022-08-21T10:08:34.055Z,38.48
2022-08-21T10:11:10.781Z,38.08
2022-08-21T10:13:59.063Z,37.89
2022-08-21T10:16:45.368Z,37.20
2022-08-21T10:19:33.133Z,36.81
2022-08-21T10:22:25.482Z,36.80
2022-08-21T10:25:08.994Z,36.95
2022-08-21T10:27:50.860Z,37.19
2022-08-21T10:30:34.870Z,36.82
2022-08-21T10:33:36.199Z,36.85
2022-08-21T10:36:21.891Z,36.11
2022-08-21T10:42:28.635Z,37.36
2022-08-21T10:45:15.026Z,37.89
2022-08-21T10:47:56.052Z,38.87
2022-08-21T10:50:39.542Z,38.40
2022-08-21T10:53:45.946Z,38.25
2022-08-21T10:56:22.868Z,37.97
2022-08-21T10:59:21.682Z,37.82
2022-08-21T11:01:58.182Z,37.97
2022-08-21T11:04:49.075Z,37.93
2022-08-21T11:07:34.246Z,37.82
2022-08-21T11:10:17.027Z,37.96
2022-08-21T11:12:57.323Z,37.63
2022-08-21T11:15:44.960Z,38.09
2022-08-21T11:18:28.765Z,38.86
2022-08-21T11:21:19.394Z,38.19
2022-08-21T11:23:56.798Z,38.03
2022-08-21T11:26:37.914Z,37.80
2022-08-21T11:29:17.425Z,36.04
2022-08-21T11:32:04.807Z,35.38
2022-08-21T11:34:58.376Z,35.33
2022-08-21T11:37:51.270Z,35.38
2022-08-21T11:40:45.448Z,36.45
2022-08-21T11:43:33.776Z,37.69
2022-08-21T11:46:19.781Z,38.73
2022-08-21T11:49:06.812Z,38.10
2022-08-21T11:51:55.424Z,36.31
2022-08-21T11:54:32.719Z,36.70
2022-08-21T11:57:09.547Z,36.86
2022-08-21T11:59:50.921Z,37.36
2022-08-21T12:02:27.461Z,35.75
2022-08-21T12:05:09.241Z,36.28
2022-08-21T12:07:43.585Z,36.81
2022-08-21T12:10:21.982Z,36.29
2022-08-21T12:12:52.598Z,36.81
2022-08-21T12:15:40.296Z,37.08
2022-08-21T12:18:25.922Z,36.91
2022-08-21T12:21:07.017Z,36.18
2022-08-21T12:23:50.358Z,36.43
2022-08-21T12:26:35.721Z,37.41
2022-08-21T12:29:17.978Z,37.36
2022-08-21T12:32:02.070Z,36.00
2022-08-21T12:34:40.938Z,34.41
2022-08-21T12:37:25.634Z,33.28
2022-08-21T12:39:59.064Z,31.80
2022-08-21T12:42:42.377Z,30.58
2022-08-21T12:45:22.706Z,29.89
2022-08-21T12:48:03.945Z,29.35
2022-08-21T12:50:41.887Z,28.44
2022-08-21T12:53:23.993Z,28.65
2022-08-21T12:55:54.922Z,28.60
2022-08-21T12:58:28.101Z,28.44
2022-08-21T13:01:06.801Z,29.03
2022-08-21T13:03:41.956Z,30.30
2022-08-21T13:06:20.383Z,31.72
2022-08-21T13:08:59.384Z,32.74
2022-08-21T13:11:32.551Z,32.51
2022-08-21T13:14:06.952Z,32.01
2022-08-21T13:16:38.350Z,32.41
2022-08-21T13:19:24.060Z,33.11
2022-08-21T13:21:55.467Z,33.57
2022-08-21T13:24:42.313Z,33.89
2022-08-21T13:27:27.741Z,33.76
2022-08-21T13:30:16.602Z,33.21
2022-08-21T13:32:52.546Z,32.93
2022-08-21T13:35:29.955Z,33.70
2022-08-21T13:38:01.311Z,33.91
2022-08-21T13:40:36.115Z,33.79
2022-08-21T13:43:07.209Z,33.54
2022-08-21T13:45:37.359Z,33.62
2022-08-21T13:48:08.877Z,34.05
2022-08-21T13:50:44.418Z,34.64
2022-08-21T13:53:27.901Z,35.16
2022-08-21T13:56:00.736Z,35.46
2022-08-21T13:58:34.305Z,35.60
2022-08-21T14:01:06.649Z,35.80
2022-08-21T14:03:45.310Z,36.14
2022-08-21T14:06:22.424Z,36.21
2022-08-21T14:08:57.447Z,34.85
2022-08-21T14:11:30.116Z,33.57
2022-08-21T14:14:05.846Z,33.81
2022-08-21T14:16:50.074Z,33.92
2022-08-21T14:19:26.287Z,34.46
2022-08-21T14:21:59.073Z,33.98
2022-08-21T14:24:35.767Z,34.23
2022-08-21T14:27:10.165Z,35.02
2022-08-21T14:29:43.909Z,36.45
2022-08-21T14:32:24.569Z,37.23
2022-08-21T14:34:55.483Z,36.77
2022-08-21T14:37:31.958Z,36.72
2022-08-21T14:40:02.786Z,37.10
2022-08-21T14:42:33.606Z,37.84
2022-08-21T14:45:18.136Z,38.21
2022-08-21T14:47:53.837Z,37.85
2022-08-21T14:50:24.093Z,38.33
2022-08-21T14:53:00.728Z,38.66
2022-08-21T14:55:31.372Z,38.50
2022-08-21T14:58:01.407Z,38.77
2022-08-21T15:00:35.882Z,39.16
2022-08-21T15:03:06.582Z,38.49
2022-08-21T15:05:36.688Z,37.85
2022-08-21T15:08:09.396Z,38.16
2022-08-21T15:10:57.116Z,39.27
2022-08-21T15:13:30.204Z,38.57
2022-08-21T15:16:00.495Z,38.86
2022-08-21T15:18:33.344Z,38.43
2022-08-21T15:21:03.333Z,39.06
2022-08-21T15:23:36.068Z,38.98
2022-08-21T15:26:10.217Z,40.12
2022-08-21T15:28:40.465Z,39.51
2022-08-21T15:31:11.070Z,39.85
2022-08-21T15:33:41.036Z,39.79
2022-08-21T15:36:11.758Z,40.05
2022-08-21T15:38:44.918Z,39.23
2022-08-21T15:41:16.197Z,39.68
2022-08-21T15:43:51.251Z,40.08
2022-08-21T15:46:24.281Z,39.64
2022-08-21T15:48:59.230Z,40.13
2022-08-21T15:51:29.811Z,40.47
2022-08-21T15:54:02.438Z,40.71
2022-08-21T15:56:41.789Z,40.94
2022-08-21T15:59:18.358Z,40.45
2022-08-21T16:01:49.465Z,39.15
2022-08-21T16:04:27.153Z,36.48
2022-08-21T16:07:04.384Z,36.97
2022-08-21T16:09:41.102Z,38.31
2022-08-21T16:12:14.782Z,39.37
2022-08-21T16:14:44.795Z,38.76
2022-08-21T16:17:15.033Z,39.22
2022-08-21T16:19:45.313Z,39.23
2022-08-21T16:22:15.353Z,39.68
2022-08-21T16:24:48.239Z,40.01
2022-08-21T16:27:19.525Z,40.34
2022-08-21T16:29:50.576Z,40.16
2022-08-21T16:32:21.441Z,39.48
2022-08-21T16:34:52.680Z,37.86
2022-08-21T16:37:25.410Z,37.74
2022-08-21T16:39:58.244Z,39.15
2022-08-21T16:42:29.721Z,37.23
2022-08-21T16:44:59.723Z,36.78
2022-08-21T16:47:29.676Z,37.16
2022-08-21T16:49:59.682Z,37.71
2022-08-21T16:52:29.926Z,38.39
2022-08-21T16:55:02.702Z,37.78
2022-08-21T16:57:33.273Z,37.86
2022-08-21T17:00:05.096Z,37.89
2022-08-21T17:02:40.158Z,35.84
2022-08-21T17:05:13.915Z,35.78
2022-08-21T17:07:45.922Z,35.76
2022-08-21T17:10:20.330Z,36.19
2022-08-21T17:12:56.528Z,35.68
2022-08-21T17:15:31.583Z,35.60
2022-08-21T17:18:02.297Z,35.56
2022-08-21T17:20:33.294Z,35.62
2022-08-21T17:23:03.465Z,35.82
2022-08-21T17:25:37.036Z,33.43
2022-08-21T17:28:07.705Z,31.37
2022-08-21T17:30:38.409Z,32.19
2022-08-21T17:33:08.469Z,32.93
2022-08-21T17:35:38.517Z,32.51
2022-08-21T17:38:08.570Z,31.71
2022-08-21T17:40:42.099Z,30.71
2022-08-21T17:43:15.365Z,29.89
2022-08-21T17:45:46.579Z,29.13
2022-08-21T17:48:16.688Z,28.27
2022-08-21T17:50:46.709Z,27.36
2022-08-21T17:53:16.682Z,26.50
2022-08-21T17:55:49.305Z,25.96
2022-08-21T17:58:20.098Z,25.39
2022-08-21T18:00:50.543Z,24.87
2022-08-21T18:03:25.081Z,24.28
2022-08-21T18:05:57.161Z,23.82
2022-08-21T18:08:27.186Z,23.47
2022-08-21T18:10:59.810Z,22.89
2022-08-21T18:13:37.903Z,22.75
2022-08-21T18:16:12.586Z,22.53
2022-08-21T18:18:46.132Z,22.25
2022-08-21T18:21:16.179Z,22.00
2022-08-21T18:23:46.946Z,21.80
2022-08-21T18:26:29.678Z,21.56
2022-08-21T18:29:03.208Z,21.34
2022-08-21T18:31:36.147Z,21.09
2022-08-21T18:34:18.184Z,20.89
2022-08-21T18:36:50.350Z,20.67
2022-08-21T18:39:35.852Z,20.49
2022-08-21T18:42:16.137Z,20.27
2022-08-21T18:44:50.766Z,20.08
2022-08-21T18:47:27.012Z,19.85
2022-08-21T18:49:58.006Z,19.80
2022-08-21T18:52:28.632Z,19.72
2022-08-21T18:54:58.790Z,19.61
2022-08-21T18:57:42.050Z,19.49
2022-08-21T19:00:21.293Z,19.30
2022-08-21T19:02:51.606Z,19.26
2022-08-21T19:05:24.339Z,19.12
2022-08-21T19:07:55.598Z,18.94
2022-08-21T19:10:28.604Z,18.80
2022-08-21T19:13:04.429Z,18.70
2022-08-21T19:15:41.271Z,18.54
2022-08-21T19:18:16.762Z,18.46
2022-08-21T19:20:47.714Z,18.45
2022-08-21T19:23:20.454Z,18.36
2022-08-21T19:26:03.622Z,18.21
2022-08-21T19:28:42.128Z,18.12
2022-08-21T19:31:23.506Z,17.94
2022-08-21T19:34:02.221Z,17.82
2022-08-21T19:36:32.428Z,17.76
2022-08-21T19:39:08.370Z,17.70
2022-08-21T19:41:45.575Z,17.75
2022-08-21T19:44:23.158Z,17.77
2022-08-21T19:46:57.575Z,17.71
2022-08-21T19:49:33.319Z,17.59
2022-08-21T19:52:07.214Z,17.47
2022-08-21T19:54:44.740Z,17.43
2022-08-21T19:57:15.666Z,17.43
2022-08-21T19:59:48.722Z,17.36
2022-08-21T20:02:21.379Z,17.34
2022-08-21T20:04:54.096Z,17.18
2022-08-21T20:10:16.129Z,17.06
2022-08-21T20:12:51.045Z,16.97
2022-08-21T20:15:25.450Z,16.90
2022-08-21T20:17:55.609Z,16.88
2022-08-21T20:20:25.708Z,16.85
2022-08-21T20:23:00.798Z,16.82
2022-08-21T20:25:42.226Z,16.76
2022-08-21T20:28:12.829Z,16.68
2022-08-21T20:30:48.393Z,16.59
2022-08-21T20:33:18.773Z,16.46
2022-08-21T20:35:51.282Z,16.36
2022-08-21T20:38:22.796Z,16.25
2022-08-21T20:40:56.704Z,16.24
2022-08-21T20:43:28.563Z,16.17
2022-08-21T20:46:02.547Z,16.13
2022-08-21T20:48:49.345Z,16.04
2022-08-21T20:51:28.826Z,16.01
2022-08-21T20:54:10.654Z,15.90
2022-08-21T20:56:54.738Z,15.84
2022-08-21T20:59:44.226Z,15.72
2022-08-21T21:02:36.215Z,15.72
2022-08-21T21:05:15.303Z,15.62
2022-08-21T21:08:00.546Z,15.53
2022-08-21T21:10:39.234Z,15.41
2022-08-21T21:13:17.888Z,15.31
2022-08-21T21:15:52.424Z,15.27
2022-08-21T21:18:36.818Z,15.24
2022-08-21T21:21:23.134Z,15.31
2022-08-21T21:24:05.078Z,15.23
2022-08-21T21:26:46.134Z,15.23
2022-08-21T21:29:27.106Z,15.11
2022-08-21T21:32:00.344Z,15.05
2022-08-21T21:34:43.658Z,15.00
2022-08-21T21:40:35.426Z,14.89
2022-08-21T21:43:19.090Z,14.89
2022-08-21T21:46:12.501Z,14.87
2022-08-21T21:49:11.526Z,14.86
2022-08-21T21:52:00.445Z,14.79
2022-08-21T21:55:03.615Z,14.77
2022-08-21T21:57:56.069Z,14.67
2022-08-21T22:00:30.138Z,14.59
2022-08-21T22:03:13.187Z,14.46
2022-08-21T22:06:09.530Z,14.49
2022-08-21T22:08:58.472Z,14.42
2022-08-21T22:11:40.472Z,14.40
2022-08-21T22:14:16.141Z,14.33
2022-08-21T22:16:52.607Z,14.37
2022-08-21T22:19:29.281Z,14.34
2022-08-21T22:22:08.828Z,14.24
2022-08-21T22:24:48.007Z,14.22
2022-08-21T22:27:24.695Z,14.15
2022-08-21T22:29:58.956Z,14.11
2022-08-21T22:32:38.617Z,14.05
2022-08-21T22:35:20.202Z,14.05
2022-08-21T22:37:54.931Z,14.03
2022-08-21T22:40:31.622Z,13.98
2022-08-21T22:43:08.802Z,14.00
2022-08-21T22:46:00.813Z,13.97
2022-08-21T22:48:36.228Z,13.86
2022-08-21T22:51:13.970Z,13.91
2022-08-21T22:53:46.330Z,13.93
2022-08-21T22:56:36.730Z,13.85
2022-08-21T22:59:13.426Z,13.81
2022-08-21T23:01:48.401Z,13.85
2022-08-21T23:04:24.675Z,13.84
2022-08-21T23:06:59.364Z,13.85
2022-08-21T23:09:38.122Z,13.75
2022-08-21T23:15:21.778Z,13.74
2022-08-21T23:18:02.777Z,13.64
2022-08-21T23:20:42.660Z,13.62
2022-08-21T23:23:22.234Z,13.71
2022-08-21T23:26:17.511Z,13.74
2022-08-21T23:29:11.444Z,13.66
2022-08-21T23:31:53.342Z,13.50
2022-08-21T23:34:29.897Z,13.57
2022-08-21T23:37:48.617Z,13.54
2022-08-21T23:40:51.410Z,13.39
2022-08-21T23:43:41.976Z,13.29
2022-08-21T23:46:40.157Z,13.32
2022-08-21T23:49:25.470Z,13.28
2022-08-21T23:52:16.147Z,13.23
2022-08-21T23:55:06.422Z,13.05
2022-08-21T23:58:00.835Z,13.07
